Time;durP1;ratioP1;P1;durP2;ratioP2;P2;SDS_P1;SDS_P2;PMS_P1;PMS_P2;Temp;Humidity;BMP_temperature;BMP_pressure;BME280_temperature;BME280_humidity;BME280_pressure;Samples;Min_cycle;Max_cycle;Signal;HPM_P1;HPM_P2
2022/03/17 00:00:33;;;;;;;9.98;4.67;;;;;;;;;;1749774;82;21040;-68
2022/03/17 00:03:00;;;;;;;9.98;4.50;;;;;;;;;;1749078;82;21536;-68
2022/03/17 00:05:26;;;;;;;7.95;4.10;;;;;;;;;;1749420;82;21004;-68
2022/03/17 00:07:53;;;;;;;9.20;5.17;;;;;;;;;;1749330;82;21578;-68
2022/03/17 00:10:20;;;;;;;7.58;4.15;;;;;;;;;;1749276;82;21025;-68
2022/03/17 00:12:48;;;;;;;9.40;4.97;;;;;;;;;;1749077;82;21077;-68
2022/03/17 00:15:14;;;;;;;8.65;4.30;;;;;;;;;;1749376;82;21527;-68
2022/03/17 00:17:43;;;;;;;8.30;4.55;;;;;;;;;;1748997;82;21056;-68
2022/03/17 00:20:10;;;;;;;11.85;5.80;;;;;;;;;;1749379;82;21071;-68
2022/03/17 00:22:37;;;;;;;8.75;4.30;;;;;;;;;;1749267;82;21032;-68
2022/03/17 00:25:05;;;;;;;9.35;4.80;;;;;;;;;;1749385;82;21115;-68
2022/03/17 00:27:32;;;;;;;7.80;4.53;;;;;;;;;;1749268;82;21053;-67
2022/03/17 00:29:58;;;;;;;10.98;4.22;;;;;;;;;;1749114;81;21076;-67
2022/03/17 00:32:26;;;;;;;6.55;3.98;;;;;;;;;;1749337;82;21540;-67
2022/03/17 00:37:41;;;;;;;9.05;4.95;;;;;;;;;;1749371;81;21162;-68
2022/03/17 00:40:08;;;;;;;8.10;4.45;;;;;;;;;;1749147;82;21104;-68
2022/03/17 00:42:34;;;;;;;9.45;5.45;;;;;;;;;;1749016;82;21072;-68
2022/03/17 00:45:41;;;;;;;8.50;4.28;;;;;;;;;;1801881;79;23635;-69
2022/03/17 00:48:07;;;;;;;15.80;6.53;;;;;;;;;;1761789;81;21579;-67
2022/03/17 00:50:34;;;;;;;13.75;6.10;;;;;;;;;;1761589;81;21056;-68
2022/03/17 00:53:01;;;;;;;14.28;6.92;;;;;;;;;;1761767;81;21020;-68
2022/03/17 00:55:28;;;;;;;9.85;5.00;;;;;;;;;;1761854;81;21501;-67
2022/03/17 00:57:56;;;;;;;9.15;4.28;;;;;;;;;;1761562;81;21583;-68
2022/03/17 01:03:06;;;;;;;10.75;5.20;;;;;;;;;;1736937;80;75819;-71
2022/03/17 01:05:34;;;;;;;9.35;5.22;;;;;;;;;;1662835;86;21067;-71
2022/03/17 01:08:02;;;;;;;10.43;5.53;;;;;;;;;;1696705;84;21036;-71
2022/03/17 01:10:28;;;;;;;11.25;4.75;;;;;;;;;;1662751;86;21118;-71
2022/03/17 01:12:56;;;;;;;11.43;5.28;;;;;;;;;;1696248;84;21587;-71
2022/03/17 01:15:24;;;;;;;11.28;4.85;;;;;;;;;;1696373;84;21045;-71
2022/03/17 01:17:51;;;;;;;11.33;5.53;;;;;;;;;;1696748;84;21068;-71
2022/03/17 01:20:19;;;;;;;13.85;5.22;;;;;;;;;;1662866;86;21011;-71
2022/03/17 01:22:45;;;;;;;9.03;4.78;;;;;;;;;;1696734;84;21072;-70
2022/03/17 01:25:12;;;;;;;13.28;5.65;;;;;;;;;;1662949;86;21097;-70
2022/03/17 01:27:39;;;;;;;11.80;5.22;;;;;;;;;;1696680;84;21025;-70
2022/03/17 01:30:09;;;;;;;13.50;5.58;;;;;;;;;;1662999;86;21585;-70
2022/03/17 01:32:38;;;;;;;9.43;5.03;;;;;;;;;;1696634;84;21103;-70
2022/03/17 01:35:06;;;;;;;10.28;5.10;;;;;;;;;;1696866;84;21084;-70
2022/03/17 01:37:33;;;;;;;9.90;5.83;;;;;;;;;;1696638;83;21091;-70
2022/03/17 01:40:00;;;;;;;6.95;3.72;;;;;;;;;;1662952;86;21149;-70
2022/03/17 01:42:26;;;;;;;10.72;5.00;;;;;;;;;;1698024;84;21025;-70
2022/03/17 01:44:55;;;;;;;10.32;5.20;;;;;;;;;;1697976;84;21092;-70
2022/03/17 01:47:28;;;;;;;10.72;5.87;;;;;;;;;;1696566;84;21132;-71
2022/03/17 01:50:00;;;;;;;7.72;4.15;;;;;;;;;;1663018;86;21046;-71
2022/03/17 01:52:26;;;;;;;7.67;3.72;;;;;;;;;;1696708;84;21104;-72
2022/03/17 01:54:53;;;;;;;9.68;4.55;;;;;;;;;;1696711;83;21075;-71
2022/03/17 01:57:20;;;;;;;7.83;3.60;;;;;;;;;;1662225;86;21114;-71
2022/03/17 01:59:47;;;;;;;9.83;4.65;;;;;;;;;;1696235;85;21362;-71
2022/03/17 02:02:13;;;;;;;4.50;2.95;;;;;;;;;;1696104;85;21033;-71
2022/03/17 02:04:43;;;;;;;9.48;4.28;;;;;;;;;;1670726;83;21191;-71
2022/03/17 02:07:10;;;;;;;7.85;3.75;;;;;;;;;;1667448;86;21139;-71
2022/03/17 02:09:38;;;;;;;8.28;4.45;;;;;;;;;;1667160;86;22225;-71
2022/03/17 02:14:54;;;;;;;9.80;4.03;;;;;;;;;;1667383;86;21084;-71
2022/03/17 02:17:22;;;;;;;9.38;4.03;;;;;;;;;;1635140;87;21149;-71
2022/03/17 02:19:48;;;;;;;7.92;3.80;;;;;;;;;;1667836;86;21057;-71
2022/03/17 02:22:17;;;;;;;9.38;3.60;;;;;;;;;;1667831;86;21168;-70
2022/03/17 02:27:33;;;;;;;5.12;3.12;;;;;;;;;;1667881;86;21045;-71
2022/03/17 02:30:03;;;;;;;6.83;3.72;;;;;;;;;;1667671;86;21099;-71
2022/03/17 02:32:29;;;;;;;6.17;3.00;;;;;;;;;;1667852;86;21536;-71
2022/03/17 02:34:55;;;;;;;9.23;2.90;;;;;;;;;;1635086;87;21042;-71
2022/03/17 02:37:24;;;;;;;5.83;3.10;;;;;;;;;;1667839;86;21092;-71
2022/03/17 02:39:50;;;;;;;5.53;3.00;;;;;;;;;;1667573;86;21095;-71
2022/03/17 02:42:18;;;;;;;5.92;2.90;;;;;;;;;;1667906;86;21005;-71
2022/03/17 02:44:47;;;;;;;6.83;3.27;;;;;;;;;;1667424;86;21112;-71
2022/03/17 02:47:15;;;;;;;5.75;3.45;;;;;;;;;;1635265;88;21065;-71
2022/03/17 02:49:41;;;;;;;7.87;3.33;;;;;;;;;;1667416;86;21120;-71
2022/03/17 02:52:08;;;;;;;3.90;2.62;;;;;;;;;;1667571;86;21096;-71
2022/03/17 02:54:36;;;;;;;3.95;2.67;;;;;;;;;;1667581;86;21100;-71
2022/03/17 02:57:04;;;;;;;5.47;3.25;;;;;;;;;;1667740;86;21065;-71
2022/03/17 02:59:30;;;;;;;5.72;3.05;;;;;;;;;;1667535;85;21073;-70
2022/03/17 03:01:57;;;;;;;5.60;3.10;;;;;;;;;;1635094;87;21094;-71
2022/03/17 03:04:25;;;;;;;5.25;3.02;;;;;;;;;;1667167;83;21068;-71
2022/03/17 03:06:52;;;;;;;6.00;3.27;;;;;;;;;;1667561;86;21120;-71
2022/03/17 03:09:19;;;;;;;5.95;3.50;;;;;;;;;;1634930;87;21069;-70
2022/03/17 03:11:45;;;;;;;7.30;3.98;;;;;;;;;;1667701;85;21032;-71
2022/03/17 03:14:15;;;;;;;9.60;3.67;;;;;;;;;;1667588;86;21148;-69
2022/03/17 03:16:42;;;;;;;7.40;4.47;;;;;;;;;;1635341;87;21094;-70
2022/03/17 03:19:08;;;;;;;9.43;5.08;;;;;;;;;;1667863;86;21056;-72
2022/03/17 03:21:36;;;;;;;9.55;4.90;;;;;;;;;;1667693;86;21088;-72
2022/03/17 03:24:02;;;;;;;12.88;5.45;;;;;;;;;;1667676;85;21037;-72
2022/03/17 03:26:30;;;;;;;13.62;5.72;;;;;;;;;;1667791;86;21127;-71
2022/03/17 03:28:58;;;;;;;11.78;4.83;;;;;;;;;;1635280;87;21098;-71
2022/03/17 03:31:24;;;;;;;8.35;4.72;;;;;;;;;;1668145;86;21547;-72
2022/03/17 03:33:51;;;;;;;11.93;4.78;;;;;;;;;;1667426;86;21045;-72
2022/03/17 03:39:05;;;;;;;11.78;5.50;;;;;;;;;;1634845;88;21063;-72
2022/03/17 03:41:32;;;;;;;11.22;5.50;;;;;;;;;;1667648;86;21076;-72
2022/03/17 03:44:00;;;;;;;10.75;5.55;;;;;;;;;;1667540;86;21119;-71
2022/03/17 03:46:29;;;;;;;12.37;4.80;;;;;;;;;;1635144;88;21066;-70
2022/03/17 03:48:56;;;;;;;9.80;5.10;;;;;;;;;;1667588;86;21088;-71
2022/03/17 03:51:25;;;;;;;13.72;6.17;;;;;;;;;;1634331;87;21058;-71
2022/03/17 03:56:37;;;;;;;11.08;5.08;;;;;;;;;;1635006;88;21130;-71
2022/03/17 03:59:07;;;;;;;12.28;5.65;;;;;;;;;;1667688;86;21615;-71
2022/03/17 04:01:33;;;;;;;14.50;6.37;;;;;;;;;;1634549;87;21133;-71
2022/03/17 04:04:05;;;;;;;10.58;5.08;;;;;;;;;;1667210;83;21186;-71
2022/03/17 04:06:31;;;;;;;15.55;7.78;;;;;;;;;;1666505;85;21061;-71
2022/03/17 04:08:57;;;;;;;11.68;4.70;;;;;;;;;;1634978;88;21067;-71
2022/03/17 04:11:24;;;;;;;11.12;4.30;;;;;;;;;;1667421;86;21075;-71
2022/03/17 04:13:51;;;;;;;12.60;5.85;;;;;;;;;;1635017;88;21090;-71
2022/03/17 04:16:19;;;;;;;13.75;6.28;;;;;;;;;;1667329;86;21053;-72
2022/03/17 04:18:46;;;;;;;10.72;5.70;;;;;;;;;;1667577;85;21096;-71
2022/03/17 04:21:13;;;;;;;10.68;4.50;;;;;;;;;;1634941;87;21042;-71
2022/03/17 04:23:41;;;;;;;8.58;3.87;;;;;;;;;;1667487;86;21116;-71
2022/03/17 04:26:08;;;;;;;6.53;3.62;;;;;;;;;;1667331;86;21067;-71
2022/03/17 04:28:35;;;;;;;8.00;3.52;;;;;;;;;;1667505;86;21017;-71
2022/03/17 04:31:03;;;;;;;11.35;4.03;;;;;;;;;;1640972;86;21088;-71
2022/03/17 04:33:31;;;;;;;10.85;4.62;;;;;;;;;;1667390;86;21584;-70
2022/03/17 04:35:57;;;;;;;9.55;4.28;;;;;;;;;;1667653;86;21052;-70
2022/03/17 04:38:25;;;;;;;9.10;3.40;;;;;;;;;;1667564;86;21064;-71
2022/03/17 04:40:52;;;;;;;6.65;3.22;;;;;;;;;;1634992;88;21065;-71
2022/03/17 04:43:20;;;;;;;5.70;3.22;;;;;;;;;;1667587;85;21040;-71
2022/03/17 04:45:46;;;;;;;5.78;3.30;;;;;;;;;;1634778;88;21101;-71
2022/03/17 04:48:13;;;;;;;7.05;3.62;;;;;;;;;;1667272;86;21056;-72
2022/03/17 04:50:42;;;;;;;6.50;3.65;;;;;;;;;;1634923;87;21602;-72
2022/03/17 04:53:27;;;;;;;6.65;3.20;;;;;;;;;;1666867;86;21546;-70
2022/03/17 04:55:55;;;;;;;5.87;3.08;;;;;;;;;;1634900;88;21129;-70
2022/03/17 04:58:21;;;;;;;5.33;2.80;;;;;;;;;;1667628;85;22140;-70
2022/03/17 05:00:47;;;;;;;4.28;3.02;;;;;;;;;;1667573;86;21047;-70
2022/03/17 05:03:15;;;;;;;7.28;3.60;;;;;;;;;;1634681;85;21091;-71
2022/03/17 05:05:42;;;;;;;7.08;3.87;;;;;;;;;;1665842;86;21096;-70
2022/03/17 05:08:09;;;;;;;6.12;3.67;;;;;;;;;;1624433;88;21071;-70
2022/03/17 05:10:37;;;;;;;6.37;3.87;;;;;;;;;;1624126;88;21588;-70
2022/03/17 05:13:08;;;;;;;6.22;3.58;;;;;;;;;;1624631;88;21561;-70
2022/03/17 05:15:35;;;;;;;8.58;4.10;;;;;;;;;;1597482;89;21089;-71
2022/03/17 05:18:04;;;;;;;8.08;4.50;;;;;;;;;;1624514;88;21044;-71
2022/03/17 05:20:31;;;;;;;10.88;5.55;;;;;;;;;;1624444;88;21077;-71
2022/03/17 05:22:58;;;;;;;9.13;5.50;;;;;;;;;;1624650;88;21108;-71
2022/03/17 05:25:24;;;;;;;9.88;4.20;;;;;;;;;;1624341;88;21093;-70
2022/03/17 05:27:51;;;;;;;7.83;3.92;;;;;;;;;;1624491;88;21085;-70
2022/03/17 05:30:18;;;;;;;11.85;5.85;;;;;;;;;;1624262;88;21581;-71
2022/03/17 05:32:46;;;;;;;11.50;5.78;;;;;;;;;;1624588;88;21580;-72
2022/03/17 05:35:13;;;;;;;7.55;4.65;;;;;;;;;;1624431;88;21088;-71
2022/03/17 05:37:41;;;;;;;10.13;5.45;;;;;;;;;;1624500;88;21085;-71
2022/03/17 05:40:17;;;;;;;9.45;4.70;;;;;;;;;;1623965;88;21116;-71
2022/03/17 05:42:43;;;;;;;12.33;5.58;;;;;;;;;;1623611;88;21071;-71
2022/03/17 05:45:10;;;;;;;9.85;5.08;;;;;;;;;;1597099;89;21141;-72
2022/03/17 05:47:37;;;;;;;10.30;5.62;;;;;;;;;;1624484;88;21082;-71
2022/03/17 05:50:04;;;;;;;11.18;5.83;;;;;;;;;;1624339;88;21069;-71
2022/03/17 05:52:31;;;;;;;9.20;4.60;;;;;;;;;;1624422;88;21109;-72
2022/03/17 05:54:58;;;;;;;10.60;5.25;;;;;;;;;;1624355;88;21536;-71
2022/03/17 05:57:24;;;;;;;8.78;4.60;;;;;;;;;;1624260;88;21125;-72
2022/03/17 05:59:50;;;;;;;8.10;5.17;;;;;;;;;;1624468;88;21111;-72
2022/03/17 06:02:18;;;;;;;10.23;5.30;;;;;;;;;;1624425;87;21066;-72
2022/03/17 06:04:46;;;;;;;9.93;5.00;;;;;;;;;;1621963;87;21621;-72
2022/03/17 06:07:14;;;;;;;8.28;4.87;;;;;;;;;;1610803;89;21065;-72
2022/03/17 06:09:41;;;;;;;10.18;4.92;;;;;;;;;;1610876;89;21098;-73
2022/03/17 06:12:08;;;;;;;8.75;5.12;;;;;;;;;;1610883;89;21049;-72
2022/03/17 06:14:35;;;;;;;11.63;5.53;;;;;;;;;;1610808;89;21556;-73
2022/03/17 06:17:04;;;;;;;8.10;3.62;;;;;;;;;;1610965;89;21109;-72
2022/03/17 06:19:30;;;;;;;7.22;4.22;;;;;;;;;;1610782;89;21073;-72
2022/03/17 06:21:58;;;;;;;6.60;3.80;;;;;;;;;;1610967;89;21102;-72
2022/03/17 06:24:25;;;;;;;7.12;4.37;;;;;;;;;;1610927;89;21084;-72
2022/03/17 06:26:51;;;;;;;7.10;4.42;;;;;;;;;;1611033;89;21437;-72
2022/03/17 06:29:18;;;;;;;7.87;4.55;;;;;;;;;;1610745;89;22225;-72
2022/03/17 06:31:45;;;;;;;8.55;4.47;;;;;;;;;;1610737;89;21098;-72
2022/03/17 06:34:12;;;;;;;10.23;4.47;;;;;;;;;;1610846;89;21074;-72
2022/03/17 06:36:39;;;;;;;8.10;4.85;;;;;;;;;;1610790;89;21006;-72
2022/03/17 06:39:05;;;;;;;7.37;4.40;;;;;;;;;;1610973;89;21049;-72
2022/03/17 06:41:32;;;;;;;9.20;4.85;;;;;;;;;;1610685;89;21164;-72
2022/03/17 06:43:59;;;;;;;7.33;4.33;;;;;;;;;;1610712;89;21078;-72
2022/03/17 06:46:25;;;;;;;5.25;3.58;;;;;;;;;;1610860;89;21039;-73
2022/03/17 06:48:51;;;;;;;8.05;4.97;;;;;;;;;;1610927;89;21125;-73
2022/03/17 06:51:18;;;;;;;8.18;4.53;;;;;;;;;;1610925;88;21038;-73
2022/03/17 06:53:44;;;;;;;12.47;5.70;;;;;;;;;;1610821;89;21037;-73
2022/03/17 06:56:11;;;;;;;8.83;4.75;;;;;;;;;;1610802;89;21124;-73
2022/03/17 06:58:39;;;;;;;10.38;4.95;;;;;;;;;;1610854;89;21066;-73
2022/03/17 07:01:05;;;;;;;10.20;4.92;;;;;;;;;;1610805;89;21008;-73
2022/03/17 07:03:33;;;;;;;8.43;4.83;;;;;;;;;;1610589;87;21126;-72
2022/03/17 07:06:00;;;;;;;7.62;4.17;;;;;;;;;;1610465;87;21157;-72
2022/03/17 07:08:27;;;;;;;7.47;4.17;;;;;;;;;;1610808;89;21073;-72
2022/03/17 07:10:54;;;;;;;5.30;3.27;;;;;;;;;;1610874;89;22255;-72
2022/03/17 07:13:22;;;;;;;6.45;3.47;;;;;;;;;;1610654;89;21097;-71
2022/03/17 07:15:49;;;;;;;4.78;3.10;;;;;;;;;;1610743;89;21050;-72
2022/03/17 07:18:15;;;;;;;6.60;3.62;;;;;;;;;;1610854;89;21078;-72
2022/03/17 07:20:43;;;;;;;6.67;3.40;;;;;;;;;;1610691;89;21113;-72
2022/03/17 07:23:09;;;;;;;7.30;3.55;;;;;;;;;;1611018;89;21109;-71
2022/03/17 07:25:36;;;;;;;4.30;2.95;;;;;;;;;;1610762;89;21093;-71
2022/03/17 07:28:04;;;;;;;5.42;3.40;;;;;;;;;;1610695;89;21105;-72
2022/03/17 07:30:31;;;;;;;7.03;3.20;;;;;;;;;;1610903;89;21555;-72
2022/03/17 07:32:59;;;;;;;5.90;3.58;;;;;;;;;;1587559;89;21073;-72
2022/03/17 07:35:26;;;;;;;4.58;2.83;;;;;;;;;;1610807;89;21109;-71
2022/03/17 07:37:53;;;;;;;4.05;2.83;;;;;;;;;;1610751;89;21086;-71
2022/03/17 07:40:20;;;;;;;4.67;2.90;;;;;;;;;;1610784;89;21656;-71
2022/03/17 07:42:46;;;;;;;5.85;3.40;;;;;;;;;;1610663;89;21058;-71
2022/03/17 07:45:14;;;;;;;6.45;3.02;;;;;;;;;;1607150;89;21069;-71
2022/03/17 07:47:45;;;;;;;6.20;3.50;;;;;;;;;;1608601;89;21051;-71
2022/03/17 07:50:12;;;;;;;3.08;2.45;;;;;;;;;;1610828;89;21073;-73
2022/03/17 07:52:39;;;;;;;6.50;3.58;;;;;;;;;;1610668;89;21070;-73
2022/03/17 07:55:06;;;;;;;4.58;2.92;;;;;;;;;;1610511;89;21145;-72
2022/03/17 07:57:32;;;;;;;5.67;2.77;;;;;;;;;;1610970;89;21098;-72
2022/03/17 07:59:59;;;;;;;7.25;3.20;;;;;;;;;;1610805;89;21520;-73
2022/03/17 08:02:25;;;;;;;10.28;3.30;;;;;;;;;;1610956;87;21133;-70
2022/03/17 08:04:54;;;;;;;5.28;2.75;;;;;;;;;;1610859;89;21048;-71
2022/03/17 08:07:22;;;;;;;5.95;3.27;;;;;;;;;;1610813;87;21050;-72
2022/03/17 08:09:48;;;;;;;6.08;3.35;;;;;;;;;;1610751;89;21142;-73
2022/03/17 08:12:15;;;;;;;4.90;2.75;;;;;;;;;;1610868;89;21082;-72
2022/03/17 08:14:42;;;;;;;5.28;3.25;;;;;;;;;;1610998;89;21530;-72
2022/03/17 08:17:10;;;;;;;5.65;3.50;;;;;;;;;;1610840;89;21576;-72
2022/03/17 08:19:38;;;;;;;5.37;3.20;;;;;;;;;;1610553;89;21092;-71
2022/03/17 08:22:05;;;;;;;4.65;3.05;;;;;;;;;;1610797;89;21115;-70
2022/03/17 08:24:31;;;;;;;4.90;2.08;;;;;;;;;;1610698;89;21061;-71
2022/03/17 08:26:59;;;;;;;7.83;2.62;;;;;;;;;;1610730;89;21053;-71
2022/03/17 08:29:25;;;;;;;4.33;2.70;;;;;;;;;;1610825;89;21070;-71
2022/03/17 08:31:51;;;;;;;9.15;3.12;;;;;;;;;;1610718;89;21041;-72
2022/03/17 08:34:17;;;;;;;4.70;3.15;;;;;;;;;;1610843;89;21083;-72
2022/03/17 08:36:45;;;;;;;2.47;2.00;;;;;;;;;;1610713;89;21145;-72
2022/03/17 08:39:12;;;;;;;4.42;2.75;;;;;;;;;;1610872;89;21007;-71
2022/03/17 08:41:39;;;;;;;3.42;2.65;;;;;;;;;;1610763;89;21074;-71
2022/03/17 08:44:07;;;;;;;4.53;3.12;;;;;;;;;;1610520;89;21605;-71
2022/03/17 08:49:22;;;;;;;3.92;2.80;;;;;;;;;;1610576;89;21076;-72
2022/03/17 08:51:53;;;;;;;6.83;3.42;;;;;;;;;;1610641;89;21073;-71
2022/03/17 08:54:22;;;;;;;3.70;2.45;;;;;;;;;;1610669;89;21065;-71
2022/03/17 08:56:49;;;;;;;6.50;3.52;;;;;;;;;;1610686;89;21105;-71
2022/03/17 08:59:16;;;;;;;6.62;2.85;;;;;;;;;;1610711;89;21046;-70
2022/03/17 09:01:42;;;;;;;5.70;2.80;;;;;;;;;;1610657;88;21624;-70
2022/03/17 09:04:11;;;;;;;6.92;3.25;;;;;;;;;;1610688;89;21087;-70
2022/03/17 09:06:38;;;;;;;4.85;3.17;;;;;;;;;;1621430;87;21155;-69
2022/03/17 09:09:05;;;;;;;5.03;2.67;;;;;;;;;;1634973;88;21031;-70
2022/03/17 09:11:34;;;;;;;5.58;3.20;;;;;;;;;;1667673;86;21124;-70
2022/03/17 09:14:01;;;;;;;3.90;2.72;;;;;;;;;;1635429;88;21153;-71
2022/03/17 09:16:29;;;;;;;5.45;3.05;;;;;;;;;;1667509;85;21587;-71
2022/03/17 09:18:57;;;;;;;5.08;2.95;;;;;;;;;;1635357;87;21070;-71
2022/03/17 09:21:25;;;;;;;3.58;2.40;;;;;;;;;;1667608;85;21084;-71
2022/03/17 09:23:52;;;;;;;3.72;2.62;;;;;;;;;;1667760;85;21084;-69
2022/03/17 09:26:18;;;;;;;4.72;2.67;;;;;;;;;;1667527;86;21559;-71
2022/03/17 09:28:45;;;;;;;6.85;3.15;;;;;;;;;;1667903;86;21088;-71
2022/03/17 09:31:12;;;;;;;6.35;3.50;;;;;;;;;;1667603;86;21084;-69
2022/03/17 09:33:39;;;;;;;6.47;2.98;;;;;;;;;;1667910;86;21096;-70
2022/03/17 09:36:05;;;;;;;8.38;2.65;;;;;;;;;;1667608;86;21060;-71
2022/03/17 09:38:32;;;;;;;5.35;3.17;;;;;;;;;;1667835;86;21080;-70
2022/03/17 09:40:58;;;;;;;6.03;3.00;;;;;;;;;;1667882;86;21084;-71
2022/03/17 09:43:31;;;;;;;5.58;3.02;;;;;;;;;;1635009;87;21114;-70
2022/03/17 09:45:54;;;;;;;11.00;3.08;;;;;;;;;;1666727;86;21056;-70
2022/03/17 09:48:22;;;;;;;5.58;3.10;;;;;;;;;;1667907;86;21485;-70
2022/03/17 09:50:50;;;;;;;5.92;2.98;;;;;;;;;;1667869;86;21129;-70
2022/03/17 09:53:17;;;;;;;4.90;2.80;;;;;;;;;;1667810;86;21080;-71
2022/03/17 09:55:43;;;;;;;6.67;3.50;;;;;;;;;;1635180;87;21054;-71
2022/03/17 09:58:10;;;;;;;4.97;3.10;;;;;;;;;;1667621;86;21103;-70
2022/03/17 10:00:48;;;;;;;7.42;3.25;;;;;;;;;;1667520;86;21080;-70
2022/03/17 10:03:15;;;;;;;10.13;3.55;;;;;;;;;;1667755;83;21572;-70
2022/03/17 10:05:43;;;;;;;5.80;2.50;;;;;;;;;;1634217;88;21050;-70
2022/03/17 10:08:11;;;;;;;6.20;3.08;;;;;;;;;;1596817;88;21145;-70
2022/03/17 10:10:39;;;;;;;5.53;3.12;;;;;;;;;;1621497;88;21037;-70
2022/03/17 10:13:08;;;;;;;4.03;2.45;;;;;;;;;;1621787;88;21100;-70
2022/03/17 10:15:36;;;;;;;5.40;3.17;;;;;;;;;;1621647;88;21014;-70
2022/03/17 10:18:19;;;;;;;6.05;3.25;;;;;;;;;;1621969;88;21035;-70
2022/03/17 10:20:46;;;;;;;7.35;3.50;;;;;;;;;;1621724;88;22256;-70
2022/03/17 10:23:12;;;;;;;6.53;3.35;;;;;;;;;;1622086;88;21065;-70
2022/03/17 10:25:39;;;;;;;5.67;2.77;;;;;;;;;;1621412;88;21097;-70
2022/03/17 10:28:07;;;;;;;4.58;3.10;;;;;;;;;;1621816;88;21116;-71
2022/03/17 10:30:35;;;;;;;4.47;2.60;;;;;;;;;;1596913;88;21667;-70
2022/03/17 10:33:09;;;;;;;5.90;3.35;;;;;;;;;;1621755;88;21089;-70
2022/03/17 10:35:35;;;;;;;7.08;3.45;;;;;;;;;;1621799;88;21062;-70
2022/03/17 10:38:10;;;;;;;4.72;3.17;;;;;;;;;;1621642;88;21085;-69
2022/03/17 10:40:37;;;;;;;6.12;3.02;;;;;;;;;;1621906;88;21649;-70
2022/03/17 10:43:18;;;;;;;6.72;2.83;;;;;;;;;;1621728;88;21053;-69
2022/03/17 10:45:45;;;;;;;7.25;3.75;;;;;;;;;;1621447;88;21129;-70
2022/03/17 10:48:12;;;;;;;4.60;2.80;;;;;;;;;;1621869;88;21140;-70
2022/03/17 10:50:40;;;;;;;6.58;3.65;;;;;;;;;;1621811;88;21533;-70
2022/03/17 10:53:07;;;;;;;6.15;2.90;;;;;;;;;;1594516;90;21083;-70
2022/03/17 10:55:34;;;;;;;5.55;3.33;;;;;;;;;;1594890;89;21134;-69
2022/03/17 10:58:14;;;;;;;4.65;3.30;;;;;;;;;;1621942;88;21031;-69
2022/03/17 11:00:46;;;;;;;4.87;2.55;;;;;;;;;;1621966;88;21577;-70
2022/03/17 11:03:13;;;;;;;6.40;3.40;;;;;;;;;;1621447;86;21125;-71
2022/03/17 11:05:41;;;;;;;5.67;3.87;;;;;;;;;;1621773;88;21073;-70
2022/03/17 11:08:09;;;;;;;6.67;3.60;;;;;;;;;;1629605;87;21075;-70
2022/03/17 11:10:40;;;;;;;5.75;3.20;;;;;;;;;;1667749;86;21041;-70
2022/03/17 11:13:11;;;;;;;6.75;3.37;;;;;;;;;;1667641;86;21141;-70
2022/03/17 11:15:38;;;;;;;7.42;3.70;;;;;;;;;;1667828;86;21033;-70
2022/03/17 11:18:07;;;;;;;4.55;2.90;;;;;;;;;;1667670;86;21100;-70
2022/03/17 11:20:34;;;;;;;6.22;3.17;;;;;;;;;;1667775;85;21132;-71
2022/03/17 11:23:20;;;;;;;5.55;3.33;;;;;;;;;;1667516;86;21098;-70
2022/03/17 11:25:54;;;;;;;5.70;3.10;;;;;;;;;;1635160;87;21109;-70
2022/03/17 11:28:22;;;;;;;4.67;3.00;;;;;;;;;;1667713;86;21075;-69
2022/03/17 11:30:51;;;;;;;4.22;3.00;;;;;;;;;;1664144;85;21111;-70
2022/03/17 11:33:28;;;;;;;6.75;3.40;;;;;;;;;;1635251;88;21138;-70
2022/03/17 11:35:56;;;;;;;5.33;3.40;;;;;;;;;;1667495;86;21048;-70
2022/03/17 11:38:23;;;;;;;5.78;3.02;;;;;;;;;;1635038;88;21055;-69
2022/03/17 11:40:57;;;;;;;5.00;2.58;;;;;;;;;;1667759;85;22198;-70
2022/03/17 11:43:24;;;;;;;5.20;3.10;;;;;;;;;;1634599;88;21102;-70
2022/03/17 11:45:52;;;;;;;4.50;2.85;;;;;;;;;;1667479;86;21591;-72
2022/03/17 11:48:19;;;;;;;4.05;3.02;;;;;;;;;;1633897;88;21550;-70
2022/03/17 11:50:48;;;;;;;7.05;2.87;;;;;;;;;;1667547;86;21044;-70
2022/03/17 11:53:16;;;;;;;5.12;3.00;;;;;;;;;;1667788;86;21096;-70
2022/03/17 11:55:45;;;;;;;4.70;3.02;;;;;;;;;;1634980;87;21546;-70
2022/03/17 11:58:16;;;;;;;5.28;2.85;;;;;;;;;;1667864;86;21124;-70
2022/03/17 12:00:46;;;;;;;4.53;2.95;;;;;;;;;;1634870;88;21031;-69
2022/03/17 12:03:13;;;;;;;5.37;3.35;;;;;;;;;;1667660;83;21148;-70
2022/03/17 12:05:42;;;;;;;4.72;3.25;;;;;;;;;;1667383;85;21096;-71
2022/03/17 12:08:09;;;;;;;5.50;3.10;;;;;;;;;;1624108;87;21142;-70
2022/03/17 12:10:54;;;;;;;5.40;3.30;;;;;;;;;;1621621;88;21041;-70
2022/03/17 12:13:24;;;;;;;5.70;3.70;;;;;;;;;;1622159;88;21527;-70
2022/03/17 12:15:55;;;;;;;5.08;3.02;;;;;;;;;;1621497;87;21160;-69
2022/03/17 12:18:21;;;;;;;5.55;2.70;;;;;;;;;;1622004;88;21584;-69
2022/03/17 12:20:52;;;;;;;6.05;3.27;;;;;;;;;;1621525;88;21089;-69
2022/03/17 12:23:35;;;;;;;9.58;4.17;;;;;;;;;;1621735;88;21137;-69
2022/03/17 12:26:03;;;;;;;7.60;4.00;;;;;;;;;;1621455;88;21599;-69
2022/03/17 12:28:31;;;;;;;5.03;3.00;;;;;;;;;;1622056;88;21030;-69
2022/03/17 12:30:57;;;;;;;5.40;3.37;;;;;;;;;;1621571;88;21077;-69
2022/03/17 12:33:25;;;;;;;5.55;3.52;;;;;;;;;;1621836;88;21104;-70
2022/03/17 12:36:04;;;;;;;5.67;3.30;;;;;;;;;;1621624;88;21588;-70
2022/03/17 12:38:30;;;;;;;5.10;3.25;;;;;;;;;;1622051;88;21066;-70
2022/03/17 12:40:57;;;;;;;4.37;3.20;;;;;;;;;;1621589;88;21065;-70
2022/03/17 12:43:24;;;;;;;5.80;3.47;;;;;;;;;;1596650;88;21112;-69
2022/03/17 12:45:51;;;;;;;6.90;3.92;;;;;;;;;;1621847;88;21887;-69
2022/03/17 12:48:18;;;;;;;6.45;3.22;;;;;;;;;;1621931;88;21097;-68
2022/03/17 12:50:47;;;;;;;7.62;3.15;;;;;;;;;;1621725;88;21094;-70
2022/03/17 12:53:15;;;;;;;6.15;3.20;;;;;;;;;;1621733;88;21121;-71
2022/03/17 12:55:42;;;;;;;5.20;2.80;;;;;;;;;;1621173;88;21101;-69
2022/03/17 12:58:15;;;;;;;5.65;3.12;;;;;;;;;;1621584;88;21022;-69
2022/03/17 13:02:49;;;;;;;4.05;2.60;;;;;;;;;;1819637;79;23375;-70
2022/03/17 13:08:00;;;;;;;6.28;3.35;;;;;;;;;;1793046;80;21062;-71
2022/03/17 13:10:27;;;;;;;6.67;3.37;;;;;;;;;;1793143;80;21054;-71
2022/03/17 13:15:44;;;;;;;5.55;2.90;;;;;;;;;;1793083;80;21063;-70
2022/03/17 13:18:11;;;;;;;5.45;3.00;;;;;;;;;;1792882;80;21075;-70
2022/03/17 13:20:40;;;;;;;7.12;2.85;;;;;;;;;;1792947;80;21063;-70
2022/03/17 13:23:08;;;;;;;6.83;3.50;;;;;;;;;;1792604;80;21091;-69
2022/03/17 13:25:35;;;;;;;7.03;3.42;;;;;;;;;;1793036;80;21012;-70
2022/03/17 13:28:03;;;;;;;4.37;2.60;;;;;;;;;;1792869;80;21015;-70
2022/03/17 13:30:31;;;;;;;3.10;2.20;;;;;;;;;;1793018;80;21024;-70
2022/03/17 13:32:59;;;;;;;5.75;2.98;;;;;;;;;;1792938;80;21262;-70
2022/03/17 13:35:26;;;;;;;5.70;2.98;;;;;;;;;;1793119;80;21000;-70
2022/03/17 13:37:54;;;;;;;4.53;3.08;;;;;;;;;;1793022;80;21060;-70
2022/03/17 13:40:20;;;;;;;3.50;2.70;;;;;;;;;;1791258;80;21107;-70
2022/03/17 13:42:59;;;;;;;5.05;3.25;;;;;;;;;;1793089;80;21024;-70
2022/03/17 13:45:33;;;;;;;5.62;3.20;;;;;;;;;;1793216;80;21611;-70
2022/03/17 13:48:03;;;;;;;3.50;2.50;;;;;;;;;;1792987;80;21044;-69
2022/03/17 13:50:30;;;;;;;7.58;3.27;;;;;;;;;;1793199;80;21020;-69
2022/03/17 13:52:59;;;;;;;4.60;2.80;;;;;;;;;;1792667;80;21064;-69
2022/03/17 13:55:34;;;;;;;5.15;2.67;;;;;;;;;;1793090;80;20997;-69
2022/03/17 13:58:08;;;;;;;4.62;2.70;;;;;;;;;;1792911;80;20985;-70
2022/03/17 14:00:34;;;;;;;4.60;2.65;;;;;;;;;;1788445;80;21189;-69
2022/03/17 14:03:17;;;;;;;5.03;2.37;;;;;;;;;;1746760;81;21053;-69
2022/03/17 14:06:04;;;;;;;5.37;2.83;;;;;;;;;;1747264;82;21060;-70
2022/03/17 14:08:32;;;;;;;4.70;2.30;;;;;;;;;;1747381;82;21020;-70
2022/03/17 14:11:03;;;;;;;4.12;2.60;;;;;;;;;;1746931;82;21524;-71
2022/03/17 14:13:30;;;;;;;5.45;3.08;;;;;;;;;;1746507;82;21504;-70
2022/03/17 14:15:58;;;;;;;5.83;2.72;;;;;;;;;;1746379;82;21070;-71
2022/03/17 14:18:25;;;;;;;4.20;2.80;;;;;;;;;;1746384;82;21072;-70
2022/03/17 14:20:51;;;;;;;3.58;2.30;;;;;;;;;;1746516;82;21029;-70
2022/03/17 14:26:03;;;;;;;5.83;2.85;;;;;;;;;;1746658;82;21037;-70
2022/03/17 14:28:30;;;;;;;5.17;2.65;;;;;;;;;;1746527;82;21081;-70
2022/03/17 14:30:57;;;;;;;4.17;3.00;;;;;;;;;;1746282;82;22190;-71
2022/03/17 14:33:23;;;;;;;5.97;2.77;;;;;;;;;;1746568;82;21013;-71
2022/03/17 14:35:52;;;;;;;3.62;2.62;;;;;;;;;;1746467;82;21052;-70
2022/03/17 14:38:20;;;;;;;5.15;2.70;;;;;;;;;;1746476;82;21168;-70
2022/03/17 14:40:48;;;;;;;3.67;2.47;;;;;;;;;;1746165;82;21548;-70
2022/03/17 14:43:15;;;;;;;5.00;2.60;;;;;;;;;;1746433;82;21067;-70
2022/03/17 14:45:41;;;;;;;4.90;3.02;;;;;;;;;;1746751;82;21068;-70
2022/03/17 14:48:09;;;;;;;4.53;3.00;;;;;;;;;;1746302;82;21022;-70
2022/03/17 14:50:35;;;;;;;4.45;2.60;;;;;;;;;;1746626;82;21049;-70
2022/03/17 14:53:03;;;;;;;5.97;3.00;;;;;;;;;;1746420;82;21040;-71
2022/03/17 14:55:30;;;;;;;4.80;2.75;;;;;;;;;;1746576;82;21053;-70
2022/03/17 14:57:57;;;;;;;3.22;2.33;;;;;;;;;;1746457;82;20994;-70
2022/03/17 15:00:24;;;;;;;3.72;2.45;;;;;;;;;;1746324;81;21064;-69
2022/03/17 15:02:50;;;;;;;3.98;2.22;;;;;;;;;;1746522;82;21056;-71
2022/03/17 15:05:16;;;;;;;3.92;2.12;;;;;;;;;;1746300;82;21528;-70
2022/03/17 15:07:46;;;;;;;4.90;2.50;;;;;;;;;;1746503;82;21041;-70
2022/03/17 15:10:12;;;;;;;3.20;2.47;;;;;;;;;;1726056;82;21037;-69
2022/03/17 15:12:40;;;;;;;3.85;2.30;;;;;;;;;;1746540;82;21063;-69
2022/03/17 15:15:11;;;;;;;4.42;2.27;;;;;;;;;;1746398;82;21030;-69